Time;durP1;ratioP1;P1;durP2;ratioP2;P2;SDS_P1;SDS_P2;PMS_P1;PMS_P2;Temp;Humidity;BMP_temperature;BMP_pressure;BME280_temperature;BME280_humidity;BME280_pressure;Samples;Min_cycle;Max_cycle;Signal;HPM_P1;HPM_P2
2022/03/09 00:01:16;;;;;;;5.93;3.47;;;4.70;99.90;;;;;;4948816;29;20212;-83
2022/03/09 00:03:45;;;;;;;5.50;3.23;;;4.80;99.90;;;;;;4929995;29;20224;-84
2022/03/09 00:06:10;;;;;;;4.63;3.63;;;4.70;99.90;;;;;;4925650;29;20280;-84
2022/03/09 00:08:36;;;;;;;5.53;3.70;;;4.60;99.90;;;;;;4925828;29;20196;-83
2022/03/09 00:11:02;;;;;;;7.07;4.30;;;4.60;99.90;;;;;;4964476;29;20176;-83
2022/03/09 00:13:28;;;;;;;6.00;3.73;;;4.50;99.90;;;;;;4942661;29;20169;-83
2022/03/09 00:15:53;;;;;;;6.27;3.40;;;4.60;99.90;;;;;;4942446;29;20181;-84
2022/03/09 00:18:19;;;;;;;9.73;4.13;;;4.50;99.90;;;;;;4930484;29;20197;-82
2022/03/09 00:20:45;;;;;;;6.90;3.80;;;4.60;99.90;;;;;;4961768;28;20244;-82
2022/03/09 00:23:11;;;;;;;6.70;3.80;;;4.60;99.90;;;;;;4956674;28;20684;-82
2022/03/09 00:25:38;;;;;;;4.53;3.80;;;4.70;99.90;;;;;;4926450;29;20185;-82
2022/03/09 00:28:03;;;;;;;5.83;3.80;;;4.60;99.90;;;;;;4950376;29;20272;-83
2022/03/09 00:30:29;;;;;;;4.67;3.73;;;4.50;99.90;;;;;;4944221;29;20172;-83
2022/03/09 00:32:55;;;;;;;6.43;3.67;;;4.50;99.90;;;;;;4963026;28;20188;-83
2022/03/09 00:35:22;;;;;;;5.97;3.70;;;4.40;99.90;;;;;;4957147;29;20173;-83
2022/03/09 00:37:48;;;;;;;6.17;3.90;;;4.50;99.90;;;;;;4943825;29;20213;-83
2022/03/09 00:40:13;;;;;;;5.20;3.63;;;4.50;99.90;;;;;;4943980;29;20180;-82
2022/03/09 00:42:41;;;;;;;5.23;3.40;;;4.40;99.90;;;;;;4944079;29;20209;-83
2022/03/09 00:45:08;;;;;;;8.10;3.97;;;4.40;99.90;;;;;;4944848;29;20875;-83
2022/03/09 00:47:33;;;;;;;9.00;3.80;;;4.40;99.90;;;;;;4922793;29;20207;-83
2022/03/09 00:49:59;;;;;;;6.83;3.90;;;4.30;99.90;;;;;;4943257;29;20189;-82
2022/03/09 00:52:26;;;;;;;5.83;3.70;;;4.20;99.90;;;;;;4935596;29;20211;-82
2022/03/09 00:54:51;;;;;;;5.13;3.90;;;4.20;99.90;;;;;;4928693;29;20177;-82
2022/03/09 00:57:18;;;;;;;4.73;3.60;;;4.10;99.90;;;;;;4962479;28;20204;-82
2022/03/09 00:59:44;;;;;;;5.80;3.40;;;4.20;99.90;;;;;;4938901;29;20197;-82
2022/03/09 01:02:10;;;;;;;5.47;3.87;;;4.20;99.90;;;;;;4957318;28;20711;-82
2022/03/09 01:04:37;;;;;;;3.80;3.37;;;4.20;99.90;;;;;;4946105;29;20184;-83
2022/03/09 01:07:06;;;;;;;5.33;3.90;;;4.10;99.90;;;;;;4941145;29;20205;-82
2022/03/09 01:09:32;;;;;;;6.03;4.00;;;4.20;99.90;;;;;;4948152;29;20173;-83
2022/03/09 01:11:58;;;;;;;6.93;3.87;;;3.90;99.90;;;;;;4955712;29;20222;-83
2022/03/09 01:14:24;;;;;;;6.93;3.97;;;3.70;99.90;;;;;;4959955;29;20180;-83
2022/03/09 01:16:50;;;;;;;5.23;3.50;;;3.50;99.90;;;;;;4958287;28;20173;-83
2022/03/09 01:19:18;;;;;;;5.17;3.47;;;3.70;99.90;;;;;;4943065;29;20187;-83
2022/03/09 01:21:43;;;;;;;5.50;3.30;;;3.80;99.90;;;;;;4974863;29;20177;-82
2022/03/09 01:24:09;;;;;;;6.20;3.37;;;3.80;99.90;;;;;;4958169;29;20188;-82
2022/03/09 01:26:39;;;;;;;4.93;3.40;;;3.70;99.90;;;;;;4950841;29;20232;-83
2022/03/09 01:29:06;;;;;;;5.83;3.60;;;3.60;99.90;;;;;;4952678;29;20220;-83
2022/03/09 01:31:32;;;;;;;6.40;3.70;;;3.60;99.90;;;;;;4949039;29;20176;-83
2022/03/09 01:33:58;;;;;;;7.40;4.17;;;3.50;99.90;;;;;;4952790;29;20184;-83
2022/03/09 01:36:24;;;;;;;4.07;3.53;;;3.40;99.90;;;;;;4963541;28;20189;-83
2022/03/09 01:38:49;;;;;;;6.27;4.40;;;3.60;99.90;;;;;;4946504;29;20223;-83
2022/03/09 01:41:15;;;;;;;6.50;4.10;;;3.70;99.90;;;;;;4951870;29;20185;-83
2022/03/09 01:43:41;;;;;;;8.30;3.30;;;3.80;99.90;;;;;;4952905;29;20250;-84
2022/03/09 01:46:07;;;;;;;11.17;4.53;;;3.90;99.90;;;;;;4948450;29;20207;-82
2022/03/09 01:48:32;;;;;;;5.13;3.70;;;4.00;99.90;;;;;;4962639;29;20202;-83
2022/03/09 01:50:58;;;;;;;6.27;3.90;;;4.20;99.90;;;;;;4947497;29;20176;-82
2022/03/09 01:53:25;;;;;;;9.30;5.13;;;4.30;99.90;;;;;;4948038;29;20215;-82
2022/03/09 01:55:51;;;;;;;8.57;4.43;;;4.10;99.90;;;;;;4940587;29;20680;-82
2022/03/09 01:58:17;;;;;;;6.97;3.87;;;4.20;99.90;;;;;;4928221;29;20297;-83
2022/03/09 02:00:45;;;;;;;5.93;3.87;;;4.20;99.90;;;;;;4935265;29;20205;-83
2022/03/09 02:03:11;;;;;;;6.90;4.10;;;3.90;99.90;;;;;;4938235;29;20201;-83
2022/03/09 02:05:38;;;;;;;8.87;4.27;;;3.90;99.90;;;;;;4940521;29;20322;-83
2022/03/09 02:10:50;;;;;;;7.43;4.00;;;3.50;99.90;;;;;;4953406;28;20243;-82
2022/03/09 02:13:16;;;;;;;7.40;4.17;;;3.60;99.90;;;;;;4947999;29;20185;-82
2022/03/09 02:15:43;;;;;;;6.43;4.40;;;3.70;99.90;;;;;;4948369;28;20176;-82
2022/03/09 02:18:12;;;;;;;5.57;3.83;;;3.80;99.90;;;;;;4956053;29;20220;-82
2022/03/09 02:20:44;;;;;;;8.73;4.60;;;4.00;99.90;;;;;;4965194;29;20210;-83
2022/03/09 02:23:14;;;;;;;7.37;4.47;;;3.90;99.90;;;;;;4928413;29;20193;-82
2022/03/09 02:25:40;;;;;;;5.77;4.60;;;3.80;99.90;;;;;;4953476;29;20196;-82
2022/03/09 02:28:06;;;;;;;8.70;5.10;;;3.90;99.90;;;;;;4964033;29;20188;-84
2022/03/09 02:30:31;;;;;;;7.30;4.57;;;4.00;99.90;;;;;;4963863;28;20180;-83
2022/03/09 02:32:57;;;;;;;10.47;4.87;;;3.90;99.90;;;;;;4960868;29;20169;-84
2022/03/09 02:35:23;;;;;;;7.93;4.70;;;3.80;99.90;;;;;;4958136;29;20248;-83
2022/03/09 02:37:48;;;;;;;7.70;5.00;;;3.90;99.90;;;;;;4956441;29;20224;-82
2022/03/09 02:40:17;;;;;;;9.67;5.47;;;3.90;99.90;;;;;;4948856;28;20181;-82
2022/03/09 02:42:43;;;;;;;9.50;4.77;;;3.80;99.90;;;;;;4952875;28;20197;-82
2022/03/09 02:45:10;;;;;;;8.87;4.80;;;3.70;99.90;;;;;;4952919;29;20534;-82
2022/03/09 02:47:43;;;;;;;7.77;4.87;;;3.70;99.90;;;;;;4946843;28;20205;-83
2022/03/09 02:50:09;;;;;;;7.47;4.83;;;3.80;99.90;;;;;;4950874;29;20234;-82
2022/03/09 02:52:41;;;;;;;6.50;4.67;;;3.70;99.90;;;;;;4944799;29;20176;-82
2022/03/09 02:55:08;;;;;;;8.77;4.50;;;3.70;99.90;;;;;;4949309;29;20195;-82
2022/03/09 02:57:47;;;;;;;6.93;4.60;;;3.60;99.90;;;;;;4940706;29;20202;-82
2022/03/09 03:00:13;;;;;;;8.97;4.67;;;3.60;99.90;;;;;;4931915;29;20220;-82
2022/03/09 03:02:39;;;;;;;8.07;5.40;;;3.50;99.90;;;;;;4945041;29;20678;-82
2022/03/09 03:05:07;;;;;;;8.27;5.20;;;3.30;99.90;;;;;;4929041;29;20180;-83
2022/03/09 03:07:34;;;;;;;6.47;4.77;;;3.10;99.90;;;;;;4944998;28;20209;-83
2022/03/09 03:10:00;;;;;;;7.37;4.93;;;2.80;99.90;;;;;;4954815;28;20211;-83
2022/03/09 03:12:25;;;;;;;5.90;4.33;;;2.60;99.90;;;;;;4956931;29;20204;-83
2022/03/09 03:14:51;;;;;;;7.47;4.80;;;2.50;99.90;;;;;;4975862;28;20232;-83
2022/03/09 03:17:17;;;;;;;5.70;4.00;;;2.80;99.90;;;;;;4975203;28;20252;-83
2022/03/09 03:19:52;;;;;;;8.17;4.57;;;2.90;99.90;;;;;;4953496;29;20240;-83
2022/03/09 03:22:18;;;;;;;5.67;4.57;;;3.00;99.90;;;;;;4938996;29;20668;-83
2022/03/09 03:24:45;;;;;;;7.30;4.23;;;3.10;99.90;;;;;;4936213;29;20182;-83
2022/03/09 03:27:12;;;;;;;10.20;5.20;;;3.20;99.90;;;;;;4944849;29;20664;-82
2022/03/09 03:29:37;;;;;;;9.37;5.03;;;3.30;99.90;;;;;;4947979;29;20180;-83
2022/03/09 03:32:03;;;;;;;9.30;5.03;;;3.40;99.90;;;;;;4947558;29;20276;-82
2022/03/09 03:34:30;;;;;;;8.43;5.87;;;3.40;99.90;;;;;;4945988;29;20191;-83
2022/03/09 03:36:56;;;;;;;8.77;5.20;;;3.20;99.90;;;;;;4945530;28;20196;-83
2022/03/09 03:39:21;;;;;;;7.63;5.37;;;3.00;99.90;;;;;;4947485;28;20199;-82
2022/03/09 03:41:47;;;;;;;9.67;5.43;;;2.90;99.90;;;;;;4950081;29;20232;-82
2022/03/09 03:44:12;;;;;;;7.40;5.40;;;2.90;99.90;;;;;;4945903;29;20240;-82
2022/03/09 03:46:40;;;;;;;7.60;4.80;;;3.00;99.90;;;;;;4934872;29;20196;-82
2022/03/09 03:49:05;;;;;;;7.20;4.80;;;3.00;99.90;;;;;;4934673;29;20173;-81
2022/03/09 03:51:31;;;;;;;10.97;5.33;;;3.00;99.90;;;;;;4938103;29;20200;-82
2022/03/09 03:53:57;;;;;;;9.00;5.30;;;3.00;99.90;;;;;;4933309;29;20189;-82
2022/03/09 03:56:22;;;;;;;10.37;5.30;;;3.00;99.90;;;;;;4959823;28;20192;-82
2022/03/09 03:58:48;;;;;;;13.93;7.10;;;3.10;99.90;;;;;;4956343;28;20204;-82
2022/03/09 04:01:14;;;;;;;9.37;5.50;;;3.00;99.90;;;;;;4944610;29;20251;-84
2022/03/09 04:03:39;;;;;;;8.00;4.57;;;3.00;99.90;;;;;;4960505;28;20207;-82
2022/03/09 04:09:15;;;;;;;8.47;5.03;;;3.00;99.90;;;;;;4938752;29;20268;-83
2022/03/09 04:11:40;;;;;;;9.70;5.27;;;3.00;99.90;;;;;;4936624;29;20189;-83
2022/03/09 04:14:06;;;;;;;7.23;5.10;;;3.10;99.90;;;;;;4938856;29;20185;-83
2022/03/09 04:16:32;;;;;;;8.37;5.50;;;3.00;99.90;;;;;;4944461;29;20260;-82
2022/03/09 04:18:58;;;;;;;9.03;5.80;;;3.00;99.90;;;;;;4930191;29;20201;-83
2022/03/09 04:21:24;;;;;;;10.17;5.50;;;2.90;99.90;;;;;;4944993;29;20185;-83
2022/03/09 04:23:50;;;;;;;8.50;5.00;;;2.90;99.90;;;;;;4945290;29;20207;-83
2022/03/09 04:26:16;;;;;;;7.13;4.63;;;2.90;99.90;;;;;;4921812;29;20649;-83
2022/03/09 04:28:41;;;;;;;6.93;5.00;;;2.80;99.90;;;;;;4928295;29;20220;-83
2022/03/09 04:31:07;;;;;;;7.27;4.60;;;2.50;99.90;;;;;;4938032;29;20369;-83
2022/03/09 04:33:33;;;;;;;8.60;4.83;;;2.30;99.90;;;;;;4932498;29;20176;-83
2022/03/09 04:35:58;;;;;;;8.83;4.87;;;2.20;99.90;;;;;;4925206;29;20216;-83
2022/03/09 04:38:24;;;;;;;7.67;5.10;;;2.00;99.90;;;;;;4931958;29;20205;-83
2022/03/09 04:40:50;;;;;;;8.13;4.90;;;1.90;99.90;;;;;;4932583;29;20207;-83
2022/03/09 04:43:15;;;;;;;7.87;4.90;;;2.00;99.90;;;;;;4933142;29;20239;-82
2022/03/09 04:45:41;;;;;;;9.03;5.30;;;2.20;99.90;;;;;;4948186;29;20240;-83
2022/03/09 04:48:07;;;;;;;8.33;5.07;;;2.20;99.90;;;;;;4932681;29;20204;-82
2022/03/09 04:50:32;;;;;;;7.37;4.97;;;2.30;99.90;;;;;;4933617;29;20172;-82
2022/03/09 04:53:05;;;;;;;7.73;5.13;;;2.20;99.90;;;;;;4953339;29;20180;-83
2022/03/09 04:55:31;;;;;;;6.57;5.00;;;2.20;99.90;;;;;;4929258;29;20191;-83
2022/03/09 04:57:56;;;;;;;10.37;5.33;;;2.30;99.90;;;;;;4913378;29;20209;-83
2022/03/09 05:00:23;;;;;;;9.10;4.63;;;2.40;99.90;;;;;;4941162;28;20216;-82
2022/03/09 05:02:54;;;;;;;7.80;4.97;;;2.20;99.90;;;;;;4947067;29;20208;-82
2022/03/09 05:05:29;;;;;;;9.43;4.90;;;2.10;99.90;;;;;;4944229;29;20188;-82
2022/03/09 05:07:55;;;;;;;6.63;4.80;;;2.30;99.90;;;;;;4943786;29;20252;-83
2022/03/09 05:10:22;;;;;;;7.80;5.13;;;2.50;99.90;;;;;;4961712;28;20180;-83
2022/03/09 05:12:52;;;;;;;7.43;5.20;;;2.50;99.90;;;;;;4963043;28;20540;-82
2022/03/09 05:15:23;;;;;;;8.60;5.20;;;2.40;99.90;;;;;;4962347;28;20167;-83
2022/03/09 05:17:55;;;;;;;11.47;5.97;;;2.20;99.90;;;;;;4919903;29;20216;-82
2022/03/09 05:20:22;;;;;;;6.43;4.70;;;2.00;99.90;;;;;;4932101;29;20189;-82
2022/03/09 05:22:53;;;;;;;8.43;5.77;;;2.00;99.90;;;;;;4950830;29;20196;-83
2022/03/09 05:25:22;;;;;;;7.40;5.33;;;2.10;99.90;;;;;;4945627;29;20181;-83
2022/03/09 05:27:48;;;;;;;7.87;5.83;;;2.10;99.90;;;;;;4929685;29;20196;-83
2022/03/09 05:30:14;;;;;;;9.67;5.57;;;2.00;99.90;;;;;;4944891;29;20223;-83
2022/03/09 05:32:42;;;;;;;8.30;5.50;;;2.00;99.90;;;;;;4928833;29;20177;-82
2022/03/09 05:35:09;;;;;;;9.63;5.60;;;2.10;99.90;;;;;;4932502;29;20216;-83
2022/03/09 05:37:43;;;;;;;9.63;5.90;;;2.30;99.90;;;;;;4921650;29;20204;-84
2022/03/09 05:40:09;;;;;;;12.60;6.20;;;2.30;99.90;;;;;;4947001;28;20200;-85
2022/03/09 05:42:36;;;;;;;11.67;6.07;;;2.20;99.90;;;;;;4950384;29;20200;-84
2022/03/09 05:45:06;;;;;;;16.90;6.90;;;2.10;99.90;;;;;;4935314;29;20246;-85
2022/03/09 05:47:35;;;;;;;12.73;5.93;;;1.90;99.90;;;;;;4936162;29;20229;-84
2022/03/09 05:50:03;;;;;;;18.37;7.00;;;1.80;99.90;;;;;;4955871;28;20185;-84
2022/03/09 05:52:31;;;;;;;14.60;7.30;;;1.90;99.90;;;;;;4946383;29;20248;-84
2022/03/09 05:54:58;;;;;;;13.97;7.20;;;1.90;99.90;;;;;;4946085;29;20212;-83
2022/03/09 05:57:24;;;;;;;12.23;6.60;;;1.70;99.90;;;;;;4924738;29;20284;-83
2022/03/09 05:59:50;;;;;;;11.90;7.17;;;1.70;99.90;;;;;;4910918;29;20189;-83
2022/03/09 06:02:16;;;;;;;12.73;7.30;;;1.70;99.90;;;;;;4927414;29;20201;-84
2022/03/09 06:04:50;;;;;;;10.93;6.87;;;1.90;99.90;;;;;;4924524;29;20333;-86
2022/03/09 06:07:16;;;;;;;12.07;6.47;;;1.90;99.90;;;;;;4930212;29;20708;-84
2022/03/09 06:09:44;;;;;;;14.93;6.90;;;1.90;99.90;;;;;;4933613;29;20204;-83
2022/03/09 06:12:11;;;;;;;14.00;7.00;;;2.00;99.90;;;;;;4924695;29;20184;-82
2022/03/09 06:14:37;;;;;;;14.93;7.87;;;2.10;99.90;;;;;;4937542;29;20199;-84
2022/03/09 06:17:05;;;;;;;17.30;7.17;;;2.10;99.90;;;;;;4926433;28;20196;-84
2022/03/09 06:19:31;;;;;;;15.20;6.60;;;2.20;99.90;;;;;;4929606;29;20180;-85
2022/03/09 06:21:57;;;;;;;12.37;7.37;;;2.00;99.90;;;;;;4945850;29;20191;-84
2022/03/09 06:24:23;;;;;;;13.90;7.17;;;2.00;99.90;;;;;;4944011;29;20185;-85
2022/03/09 06:26:49;;;;;;;12.30;6.53;;;1.90;99.90;;;;;;4928722;28;20215;-83
2022/03/09 06:29:16;;;;;;;11.93;7.07;;;1.70;99.90;;;;;;4929593;29;20240;-83
2022/03/09 06:31:43;;;;;;;12.60;7.20;;;1.90;99.90;;;;;;4949252;28;20187;-83
2022/03/09 06:34:09;;;;;;;17.17;7.73;;;2.30;99.90;;;;;;4947750;29;20181;-83
2022/03/09 06:36:34;;;;;;;14.17;6.90;;;2.40;99.90;;;;;;4961203;28;20227;-85
2022/03/09 06:39:00;;;;;;;17.40;7.80;;;2.50;99.90;;;;;;4952601;28;20203;-78
2022/03/09 06:41:26;;;;;;;21.13;7.70;;;2.50;99.90;;;;;;4950872;28;20191;-80
2022/03/09 06:43:52;;;;;;;22.40;7.73;;;2.30;99.90;;;;;;4961106;28;20201;-80
2022/03/09 06:46:22;;;;;;;22.53;7.47;;;2.10;99.90;;;;;;4944398;28;20200;-79
2022/03/09 06:48:48;;;;;;;19.47;7.77;;;1.90;99.90;;;;;;4941099;28;20200;-80
2022/03/09 06:51:13;;;;;;;22.37;7.80;;;1.90;99.90;;;;;;4956299;28;20259;-80
2022/03/09 06:53:39;;;;;;;15.90;7.73;;;2.00;99.90;;;;;;4937298;28;20211;-80
2022/03/09 06:56:05;;;;;;;15.73;6.70;;;2.00;99.90;;;;;;4953873;28;20239;-79
2022/03/09 06:58:30;;;;;;;14.67;7.27;;;2.00;99.90;;;;;;4949002;28;20196;-80
2022/03/09 07:00:57;;;;;;;16.37;7.40;;;2.30;99.90;;;;;;4955747;28;20254;-80
2022/03/09 07:03:24;;;;;;;16.77;6.97;;;2.50;99.90;;;;;;4933514;28;20200;-81
2022/03/09 07:05:57;;;;;;;15.90;6.60;;;2.50;99.90;;;;;;4933329;28;20176;-81
2022/03/09 07:08:22;;;;;;;17.43;7.80;;;2.70;99.90;;;;;;4950963;29;20212;-81
2022/03/09 07:10:48;;;;;;;15.17;7.10;;;2.80;99.90;;;;;;4963583;28;20615;-79
2022/03/09 07:13:14;;;;;;;16.23;6.87;;;2.80;99.90;;;;;;4941191;28;20248;-81
2022/03/09 07:15:39;;;;;;;11.90;7.53;;;2.80;99.90;;;;;;4954761;28;20195;-79
2022/03/09 07:18:05;;;;;;;17.03;7.27;;;2.80;99.90;;;;;;4952904;28;20293;-79
2022/03/09 07:20:34;;;;;;;15.57;6.67;;;2.70;99.90;;;;;;4956787;28;20788;-80
2022/03/09 07:23:00;;;;;;;13.60;6.77;;;2.70;99.90;;;;;;4950752;28;20204;-80
2022/03/09 07:25:25;;;;;;;11.67;6.50;;;2.60;99.90;;;;;;4961497;28;20211;-80
2022/03/09 07:27:54;;;;;;;10.47;6.73;;;2.80;99.90;;;;;;4957610;28;20205;-79
2022/03/09 07:30:21;;;;;;;8.90;6.50;;;2.80;99.90;;;;;;4960188;28;20266;-80
2022/03/09 07:32:47;;;;;;;12.57;6.80;;;2.80;99.90;;;;;;4937422;28;20770;-79
2022/03/09 07:35:13;;;;;;;10.13;6.20;;;2.80;99.90;;;;;;4952321;28;20224;-80
2022/03/09 07:37:39;;;;;;;15.27;6.83;;;2.90;99.90;;;;;;4959707;28;20254;-80
2022/03/09 07:40:06;;;;;;;10.83;6.17;;;2.80;99.90;;;;;;4945524;29;20184;-79
2022/03/09 07:42:32;;;;;;;8.90;6.57;;;2.80;99.90;;;;;;4932620;28;20200;-79
2022/03/09 07:45:46;;;;;;;11.77;6.10;;;3.00;99.90;;;;;;4957049;28;20190;-80
2022/03/09 07:48:12;;;;;;;13.33;7.40;;;3.20;99.90;;;;;;4932745;28;20200;-80
2022/03/09 07:50:38;;;;;;;12.40;6.80;;;3.10;99.90;;;;;;4949855;28;20173;-80
2022/03/09 07:53:08;;;;;;;18.53;6.43;;;3.10;99.90;;;;;;4951375;28;20240;-80
2022/03/09 07:55:34;;;;;;;14.73;6.40;;;3.40;99.90;;;;;;4939455;28;20184;-80
2022/03/09 07:58:24;;;;;;;11.90;6.10;;;3.50;99.90;;;;;;4946511;28;20586;-80
2022/03/09 08:00:49;;;;;;;11.33;6.40;;;3.50;99.90;;;;;;4948039;29;20216;-80
2022/03/09 08:03:15;;;;;;;11.13;6.40;;;3.60;99.90;;;;;;4947129;28;20569;-80
2022/03/09 08:05:43;;;;;;;14.40;6.00;;;3.70;99.90;;;;;;4951404;28;20188;-81
2022/03/09 08:08:08;;;;;;;18.97;6.53;;;3.80;99.90;;;;;;4951838;28;20192;-81
2022/03/09 08:10:34;;;;;;;15.43;6.73;;;3.70;99.90;;;;;;4950273;28;20208;-81
2022/03/09 08:12:59;;;;;;;15.40;6.40;;;3.70;99.90;;;;;;4950377;28;20176;-81
2022/03/09 08:15:27;;;;;;;13.73;6.43;;;3.80;99.90;;;;;;4952971;28;20287;-81
2022/03/09 08:17:53;;;;;;;12.60;6.20;;;3.70;99.90;;;;;;4948562;28;20742;-81
2022/03/09 08:20:19;;;;;;;17.37;7.03;;;3.70;99.90;;;;;;4934891;28;20270;-81
2022/03/09 08:22:45;;;;;;;16.23;6.97;;;3.70;99.90;;;;;;4951662;28;20204;-79
2022/03/09 08:25:13;;;;;;;14.87;6.10;;;3.80;99.90;;;;;;4954219;28;20178;-80
2022/03/09 08:27:39;;;;;;;12.07;6.80;;;3.90;99.90;;;;;;4949134;28;20192;-80
2022/03/09 08:30:06;;;;;;;13.67;6.50;;;3.80;99.90;;;;;;4950739;28;20609;-80
2022/03/09 08:32:32;;;;;;;10.77;5.93;;;3.70;99.90;;;;;;4954929;28;20172;-80
2022/03/09 08:34:58;;;;;;;17.70;6.70;;;3.70;99.90;;;;;;4949964;28;20180;-80
2022/03/09 08:37:23;;;;;;;14.80;6.93;;;3.60;99.90;;;;;;4956410;29;20197;-79
2022/03/09 08:39:49;;;;;;;14.10;6.50;;;3.80;99.90;;;;;;4952884;28;20191;-80
2022/03/09 08:42:18;;;;;;;13.63;6.03;;;3.90;99.90;;;;;;4949169;28;20207;-80
2022/03/09 08:44:43;;;;;;;11.00;5.93;;;4.00;99.90;;;;;;4944101;28;20248;-80
2022/03/09 08:47:09;;;;;;;14.00;6.90;;;4.00;99.90;;;;;;4957718;28;20231;-80
2022/03/09 08:49:39;;;;;;;14.30;6.60;;;4.20;99.90;;;;;;4952110;28;20181;-80
2022/03/09 08:52:13;;;;;;;11.57;6.00;;;4.40;99.90;;;;;;4954454;28;20172;-79
2022/03/09 08:54:42;;;;;;;11.23;6.40;;;4.40;99.90;;;;;;4938321;28;20179;-80
2022/03/09 08:57:08;;;;;;;11.87;6.50;;;4.30;99.90;;;;;;4964314;28;20192;-78
2022/03/09 08:59:34;;;;;;;9.27;5.50;;;4.30;99.90;;;;;;4953910;28;20177;-79
2022/03/09 09:02:06;;;;;;;12.60;5.47;;;4.30;99.90;;;;;;4953585;28;20195;-78
2022/03/09 09:08:23;;;;;;;13.60;5.80;;;4.50;99.90;;;;;;4977601;28;20255;-79
2022/03/09 09:10:53;;;;;;;8.73;5.20;;;4.70;99.90;;;;;;4966162;28;20235;-80
2022/03/09 09:13:20;;;;;;;9.13;5.27;;;4.80;99.90;;;;;;4969658;28;20184;-81
2022/03/09 09:16:05;;;;;;;9.10;5.33;;;5.00;99.90;;;;;;4965983;28;20192;-81
2022/03/09 09:18:30;;;;;;;10.43;5.00;;;5.10;99.90;;;;;;4958758;28;20663;-80
2022/03/09 09:21:00;;;;;;;11.80;5.67;;;5.10;99.90;;;;;;4954383;28;20340;-80
2022/03/09 09:23:30;;;;;;;7.40;4.63;;;5.00;99.70;;;;;;4952542;28;20215;-80
2022/03/09 09:25:57;;;;;;;10.30;4.97;;;5.10;98.70;;;;;;4934052;28;20562;-80
2022/03/09 09:28:23;;;;;;;11.47;5.00;;;5.20;99.40;;;;;;4973557;23;20224;-80
2022/03/09 09:30:48;;;;;;;8.97;4.70;;;5.40;98.10;;;;;;4982437;28;20239;-78
2022/03/09 09:33:15;;;;;;;6.97;4.63;;;5.40;98.40;;;;;;4979589;28;20168;-79
2022/03/09 09:35:41;;;;;;;9.63;6.30;;;5.50;98.10;;;;;;4980487;28;20174;-81
2022/03/09 09:38:08;;;;;;;7.83;5.23;;;5.60;98.30;;;;;;4981087;28;20208;-81
2022/03/09 09:40:43;;;;;;;10.57;5.87;;;5.60;98.20;;;;;;4950802;28;20180;-81
2022/03/09 09:43:16;;;;;;;9.00;5.07;;;5.70;98.30;;;;;;4973531;28;20193;-81
2022/03/09 09:45:42;;;;;;;9.47;5.33;;;5.90;98.20;;;;;;4990268;28;20246;-80
2022/03/09 09:48:10;;;;;;;8.73;5.13;;;5.90;97.60;;;;;;4972869;28;20217;-80
2022/03/09 09:50:38;;;;;;;9.00;5.60;;;5.90;97.20;;;;;;4969471;28;20176;-82
2022/03/09 09:53:07;;;;;;;8.60;5.53;;;5.80;97.20;;;;;;4942715;28;20195;-83
2022/03/09 09:55:33;;;;;;;11.37;5.40;;;6.00;97.30;;;;;;4983455;28;20181;-82
2022/03/09 09:58:00;;;;;;;9.20;5.53;;;6.00;97.80;;;;;;4941103;28;20207;-82
2022/03/09 10:00:26;;;;;;;8.47;4.93;;;6.10;96.10;;;;;;4966472;28;20183;-82
2022/03/09 10:02:52;;;;;;;8.33;5.60;;;6.10;95.90;;;;;;4946484;28;20200;-81
2022/03/09 10:05:19;;;;;;;7.40;5.10;;;6.20;95.40;;;;;;4943790;28;20272;-83
2022/03/09 10:08:03;;;;;;;7.23;4.73;;;6.30;95.10;;;;;;4950138;28;20200;-82
2022/03/09 10:10:35;;;;;;;7.27;5.00;;;6.40;95.30;;;;;;4958923;28;20175;-82
2022/03/09 10:13:30;;;;;;;7.40;4.93;;;6.50;95.20;;;;;;4960128;28;20188;-82
2022/03/09 10:16:20;;;;;;;9.70;5.00;;;6.60;94.90;;;;;;4964334;28;20658;-82
2022/03/09 10:18:53;;;;;;;7.77;5.40;;;6.70;94.30;;;;;;4968148;28;20201;-82
2022/03/09 10:21:22;;;;;;;7.93;5.23;;;7.00;94.30;;;;;;4943985;28;20219;-83
2022/03/09 10:23:51;;;;;;;7.80;5.27;;;7.20;93.10;;;;;;4966617;28;20206;-83
2022/03/09 10:26:19;;;;;;;8.20;4.93;;;7.60;92.70;;;;;;4980751;28;21405;-83
2022/03/09 10:29:17;;;;;;;8.87;5.03;;;8.00;90.20;;;;;;4964960;28;20215;-83
2022/03/09 10:31:48;;;;;;;8.77;5.17;;;8.40;89.90;;;;;;4953745;28;20189;-83
2022/03/09 10:34:20;;;;;;;7.63;5.40;;;8.90;86.30;;;;;;4969763;28;20172;-80
2022/03/09 10:37:01;;;;;;;7.47;5.67;;;9.50;82.90;;;;;;4952066;28;20173;-82
2022/03/09 10:39:38;;;;;;;11.30;5.43;;;9.90;78.20;;;;;;4967484;28;20205;-81
2022/03/09 10:42:23;;;;;;;6.77;5.40;;;10.10;76.10;;;;;;4945723;28;20190;-83
2022/03/09 10:44:50;;;;;;;8.63;5.63;;;10.60;73.90;;;;;;4946753;28;20172;-83
2022/03/09 10:47:33;;;;;;;8.90;5.40;;;10.70;68.60;;;;;;4947442;28;20214;-83
2022/03/09 10:50:14;;;;;;;6.80;4.87;;;10.90;65.70;;;;;;4963441;28;20176;-82
2022/03/09 10:52:50;;;;;;;13.27;5.83;;;11.00;63.50;;;;;;4953404;28;20183;-83
2022/03/09 10:55:27;;;;;;;11.03;5.87;;;11.10;61.70;;;;;;4987126;28;20211;-83
2022/03/09 10:58:06;;;;;;;11.60;6.33;;;11.30;61.30;;;;;;4972467;28;20204;-80
2022/03/09 11:00:58;;;;;;;10.87;6.30;;;11.60;61.60;;;;;;4987884;28;20260;-81
2022/03/09 11:03:27;;;;;;;11.43;6.67;;;11.90;60.00;;;;;;4966728;28;20227;-83
2022/03/09 11:06:00;;;;;;;13.73;6.23;;;11.80;60.20;;;;;;4973000;28;20178;-84
2022/03/09 11:08:37;;;;;;;11.93;6.80;;;11.90;60.90;;;;;;4959238;28;20200;-82
2022/03/09 11:11:04;;;;;;;13.23;6.33;;;12.00;59.10;;;;;;4967439;28;20176;-83
2022/03/09 11:13:34;;;;;;;11.50;6.80;;;12.20;59.20;;;;;;4968271;28;20191;-80
2022/03/09 11:16:01;;;;;;;10.90;6.37;;;12.40;57.20;;;;;;4944582;28;20184;-82
2022/03/09 11:18:29;;;;;;;11.23;6.03;;;12.50;56.80;;;;;;4969035;28;20253;-81
2022/03/09 11:20:57;;;;;;;14.03;6.73;;;12.80;56.70;;;;;;4970565;28;20200;-80
2022/03/09 11:23:24;;;;;;;18.83;6.57;;;13.10;55.80;;;;;;4955674;28;20287;-78
2022/03/09 11:26:16;;;;;;;10.50;6.93;;;13.30;54.60;;;;;;4961397;28;20179;-82
2022/03/09 11:28:46;;;;;;;11.63;6.53;;;13.40;54.20;;;;;;4961127;28;20244;-82
2022/03/09 11:31:49;;;;;;;12.63;6.93;;;13.60;53.70;;;;;;4973618;28;20267;-75
2022/03/09 11:34:41;;;;;;;10.33;6.40;;;13.60;52.90;;;;;;4871851;29;20204;-77
2022/03/09 11:37:13;;;;;;;11.97;6.50;;;13.50;53.00;;;;;;4957158;28;20211;-82
2022/03/09 11:39:44;;;;;;;11.63;6.90;;;13.60;52.80;;;;;;4941280;28;20180;-80
2022/03/09 11:42:22;;;;;;;11.83;6.50;;;13.50;52.30;;;;;;4973802;28;20181;-80
2022/03/09 11:45:14;;;;;;;10.07;7.07;;;13.40;53.90;;;;;;4950817;28;20187;-82
2022/03/09 11:48:04;;;;;;;11.17;6.47;;;13.70;52.60;;;;;;4956070;28;20299;-82
2022/03/09 11:50:34;;;;;;;10.10;6.30;;;14.00;51.70;;;;;;4953020;28;20177;-81
2022/03/09 11:53:05;;;;;;;9.37;6.13;;;14.30;50.30;;;;;;4940774;28;20184;-81
2022/03/09 11:55:32;;;;;;;14.73;6.33;;;14.40;49.70;;;;;;4950615;29;20271;-83
2022/03/09 11:57:58;;;;;;;8.37;6.60;;;14.50;50.50;;;;;;4959033;28;20248;-82
2022/03/09 12:00:24;;;;;;;11.83;6.33;;;14.70;50.30;;;;;;4944237;28;20220;-81
2022/03/09 12:02:56;;;;;;;11.97;6.80;;;14.60;48.70;;;;;;4932390;28;20197;-81
2022/03/09 12:05:25;;;;;;;7.40;6.30;;;14.70;48.30;;;;;;4953315;28;20259;-82
2022/03/09 12:08:06;;;;;;;10.53;6.47;;;14.70;47.90;;;;;;4941736;29;20220;-82
2022/03/09 12:10:52;;;;;;;13.83;6.53;;;14.60;48.70;;;;;;4958005;29;20179;-82
2022/03/09 12:13:31;;;;;;;13.13;6.40;;;14.40;48.40;;;;;;4975208;28;20184;-83
2022/03/09 12:16:12;;;;;;;12.67;6.77;;;14.10;49.50;;;;;;4935280;28;20184;-83
2022/03/09 12:18:48;;;;;;;8.93;5.80;;;13.60;49.80;;;;;;4955563;28;20197;-82
2022/03/09 12:21:40;;;;;;;10.63;6.80;;;13.20;50.90;;;;;;4963741;28;20301;-83
2022/03/09 12:24:08;;;;;;;7.03;6.03;;;12.70;51.20;;;;;;4973536;28;20211;-76
2022/03/09 12:27:21;;;;;;;8.97;6.13;;;12.30;50.70;;;;;;4941593;28;20180;-76
2022/03/09 12:29:46;;;;;;;9.20;5.63;;;11.90;52.10;;;;;;4972521;28;20709;-74
2022/03/09 12:32:14;;;;;;;10.90;6.10;;;11.80;51.80;;;;;;4937083;28;20168;-74
2022/03/09 12:34:47;;;;;;;6.90;5.20;;;11.60;52.70;;;;;;4956112;28;20235;-75
2022/03/09 12:37:23;;;;;;;10.60;5.80;;;11.50;52.60;;;;;;4948390;29;20180;-74
2022/03/09 12:39:57;;;;;;;8.23;5.90;;;11.40;52.70;;;;;;4953714;28;20191;-75
2022/03/09 12:42:22;;;;;;;9.00;6.20;;;11.40;53.10;;;;;;4971345;28;20239;-75
2022/03/09 12:44:49;;;;;;;8.73;6.07;;;11.40;51.90;;;;;;4935583;28;20220;-74
2022/03/09 12:47:17;;;;;;;12.37;6.70;;;11.40;52.60;;;;;;4957011;28;20180;-75
2022/03/09 12:49:52;;;;;;;8.30;5.73;;;11.50;52.00;;;;;;4957393;28;20184;-72
2022/03/09 12:52:21;;;;;;;8.33;5.43;;;11.50;50.60;;;;;;4955912;28;20331;-72
2022/03/09 12:54:57;;;;;;;6.97;5.60;;;11.40;49.70;;;;;;4929532;28;20176;-72
2022/03/09 12:57:29;;;;;;;7.03;6.00;;;11.40;52.00;;;;;;4935575;28;20177;-72
2022/03/09 13:00:13;;;;;;;7.93;5.90;;;11.40;52.20;;;;;;4932916;28;20201;-72
2022/03/09 13:02:54;;;;;;;9.83;6.60;;;11.40;52.20;;;;;;4947340;29;20199;-73
2022/03/09 13:05:31;;;;;;;8.93;6.13;;;11.40;52.50;;;;;;4949107;28;20270;-74
2022/03/09 13:08:00;;;;;;;9.40;6.43;;;11.40;53.10;;;;;;4948548;28;20208;-74
2022/03/09 13:10:49;;;;;;;8.07;6.33;;;11.50;52.10;;;;;;4940024;28;20183;-74